Time;durP1;ratioP1;P1;durP2;ratioP2;P2;SDS_P1;SDS_P2;PMS_P1;PMS_P2;Temp;Humidity;BMP_temperature;BMP_pressure;BME280_temperature;BME280_humidity;BME280_pressure;Samples;Min_cycle;Max_cycle;Signal;HPM_P1;HPM_P2
2022/09/30 00:01:57;;;;;;;2.57;2.37;;;14.30;58.50;;;;;;4929825;29;20491;-72
2022/09/30 00:04:26;;;;;;;2.77;2.57;;;14.30;58.60;;;;;;4941330;29;20502;-72
2022/09/30 00:06:54;;;;;;;2.80;2.60;;;14.40;58.60;;;;;;4934719;28;20550;-72
2022/09/30 00:09:23;;;;;;;3.30;2.47;;;14.30;58.50;;;;;;4936659;29;20447;-72
2022/09/30 00:11:52;;;;;;;3.00;2.77;;;14.30;58.50;;;;;;4950533;28;20533;-72
2022/09/30 00:14:22;;;;;;;2.67;2.40;;;14.40;58.60;;;;;;4933140;29;20939;-72
2022/09/30 00:16:51;;;;;;;3.30;2.43;;;14.40;58.60;;;;;;4931707;28;20483;-72
2022/09/30 00:19:20;;;;;;;2.37;2.17;;;14.30;58.50;;;;;;4933739;29;20815;-72
2022/09/30 00:21:49;;;;;;;2.83;2.20;;;14.30;58.50;;;;;;4933284;28;20474;-72
2022/09/30 00:24:17;;;;;;;4.90;2.40;;;14.30;58.50;;;;;;4947525;29;21060;-72
2022/09/30 00:26:46;;;;;;;2.93;2.70;;;14.30;58.60;;;;;;4946444;28;20889;-72
2022/09/30 00:29:14;;;;;;;1.97;1.87;;;14.30;58.50;;;;;;4949199;29;20554;-72
2022/09/30 00:31:42;;;;;;;2.80;2.60;;;14.30;58.50;;;;;;4956016;28;20443;-72
2022/09/30 00:34:11;;;;;;;2.80;2.50;;;14.30;58.50;;;;;;4933088;29;20432;-72
2022/09/30 00:36:43;;;;;;;3.00;2.77;;;14.30;58.50;;;;;;4932320;28;20486;-72
2022/09/30 00:39:14;;;;;;;3.50;2.20;;;14.30;58.50;;;;;;4924995;29;20459;-72
2022/09/30 00:41:44;;;;;;;2.40;2.13;;;14.30;58.50;;;;;;4930680;29;20446;-72
2022/09/30 00:44:44;;;;;;;2.23;2.03;;;14.30;58.50;;;;;;4965047;28;20499;-72
2022/09/30 00:47:33;;;;;;;4.37;3.00;;;14.30;58.50;;;;;;4940748;28;20526;-72
2022/09/30 00:50:04;;;;;;;2.90;2.60;;;14.30;58.60;;;;;;4940529;28;20467;-72
2022/09/30 00:52:34;;;;;;;2.40;2.10;;;14.30;58.50;;;;;;4948149;28;20911;-72
2022/09/30 00:55:07;;;;;;;2.73;2.43;;;14.30;58.50;;;;;;4941098;28;20446;-72
2022/09/30 00:57:36;;;;;;;3.40;2.47;;;14.30;58.50;;;;;;4947539;28;20478;-72
2022/09/30 01:00:06;;;;;;;3.17;2.40;;;14.30;58.50;;;;;;4927956;28;20456;-72
2022/09/30 01:02:35;;;;;;;3.93;2.57;;;14.30;58.50;;;;;;4948690;28;20463;-72
2022/09/30 01:05:04;;;;;;;3.23;2.20;;;14.30;58.50;;;;;;4956957;28;20502;-72
2022/09/30 01:07:53;;;;;;;2.90;2.23;;;14.30;58.50;;;;;;4930556;29;20473;-72
2022/09/30 01:10:40;;;;;;;4.10;2.40;;;14.30;58.50;;;;;;4945996;29;20881;-72
2022/09/30 01:13:08;;;;;;;4.47;2.53;;;14.30;58.50;;;;;;4928814;28;20478;-72
2022/09/30 01:15:51;;;;;;;4.43;2.70;;;14.30;58.60;;;;;;4932481;28;20529;-72
2022/09/30 01:18:30;;;;;;;2.50;2.00;;;14.30;58.40;;;;;;4946086;29;20919;-72
2022/09/30 01:21:30;;;;;;;3.90;2.60;;;14.20;58.30;;;;;;4948284;29;20455;-72
2022/09/30 01:24:51;;;;;;;2.77;1.97;;;14.30;58.10;;;;;;4936737;29;20970;-72
2022/09/30 01:27:47;;;;;;;3.10;2.33;;;14.20;58.20;;;;;;4925627;29;20982;-72
2022/09/30 01:30:20;;;;;;;3.27;2.77;;;14.20;58.20;;;;;;4934905;28;20533;-72
2022/09/30 01:33:09;;;;;;;3.77;2.30;;;14.20;58.30;;;;;;4926431;29;20594;-72
2022/09/30 01:36:01;;;;;;;3.37;2.50;;;14.30;58.40;;;;;;4932624;28;20497;-72
2022/09/30 01:38:33;;;;;;;2.47;2.07;;;14.30;58.30;;;;;;4935257;29;20853;-72
2022/09/30 01:41:06;;;;;;;4.37;2.10;;;14.20;58.20;;;;;;4948345;28;20482;-72
2022/09/30 01:43:43;;;;;;;3.23;2.40;;;14.20;58.10;;;;;;4949211;29;20431;-72
2022/09/30 01:46:21;;;;;;;3.20;2.40;;;14.20;58.10;;;;;;4925293;29;20567;-72
2022/09/30 01:48:59;;;;;;;2.20;2.00;;;14.20;58.30;;;;;;4937104;29;20813;-72
2022/09/30 01:51:34;;;;;;;2.57;2.27;;;14.20;58.10;;;;;;4957566;28;20909;-72
2022/09/30 01:54:07;;;;;;;3.10;2.40;;;14.20;58.10;;;;;;4916913;29;20594;-72
2022/09/30 01:56:41;;;;;;;2.63;2.40;;;14.20;58.30;;;;;;4948005;28;20478;-72
2022/09/30 01:59:15;;;;;;;2.30;2.10;;;14.20;58.10;;;;;;4922661;29;20530;-72
2022/09/30 02:01:48;;;;;;;2.93;2.43;;;14.20;58.20;;;;;;4926571;29;20467;-72
2022/09/30 02:04:23;;;;;;;2.90;2.40;;;14.20;58.20;;;;;;4931571;29;20486;-72
2022/09/30 02:06:57;;;;;;;2.33;2.13;;;14.20;58.10;;;;;;4947493;28;20472;-72
2022/09/30 02:09:29;;;;;;;3.07;2.43;;;14.20;57.90;;;;;;4941447;28;20459;-72
2022/09/30 02:12:03;;;;;;;2.50;2.00;;;14.20;58.10;;;;;;4934143;29;20982;-72
2022/09/30 02:14:36;;;;;;;2.77;2.40;;;14.20;58.20;;;;;;4934635;29;20447;-72
2022/09/30 02:17:09;;;;;;;2.80;2.50;;;14.20;58.10;;;;;;4928315;29;20494;-72
2022/09/30 02:19:43;;;;;;;4.33;2.20;;;14.20;57.90;;;;;;4942737;28;20787;-72
2022/09/30 02:22:16;;;;;;;2.60;2.40;;;14.20;58.00;;;;;;4937529;29;20464;-72
2022/09/30 02:24:46;;;;;;;2.60;2.40;;;14.20;57.90;;;;;;4927417;28;20546;-72
2022/09/30 02:27:19;;;;;;;2.40;2.20;;;14.20;57.90;;;;;;4936911;28;20477;-73
2022/09/30 02:29:53;;;;;;;3.80;1.83;;;14.20;57.90;;;;;;4934139;29;20471;-73
2022/09/30 02:32:25;;;;;;;3.30;2.57;;;14.20;58.00;;;;;;4976712;23;20581;-65
2022/09/30 02:34:59;;;;;;;2.07;1.87;;;14.10;57.80;;;;;;4991418;28;20443;-68
2022/09/30 02:37:32;;;;;;;2.50;1.97;;;14.10;57.80;;;;;;4973443;28;20485;-68
2022/09/30 02:40:08;;;;;;;2.97;2.03;;;14.10;57.70;;;;;;4953836;28;20640;-69
2022/09/30 02:42:37;;;;;;;2.83;2.40;;;14.10;57.70;;;;;;4955839;28;20507;-70
2022/09/30 02:45:09;;;;;;;2.17;1.97;;;14.10;57.70;;;;;;4955960;28;20556;-69
2022/09/30 02:47:50;;;;;;;3.10;2.47;;;14.10;57.70;;;;;;4977849;28;20556;-69
2022/09/30 02:50:25;;;;;;;2.40;2.00;;;14.10;57.80;;;;;;4971677;28;20482;-69
2022/09/30 02:53:05;;;;;;;3.63;2.23;;;14.10;57.70;;;;;;4952341;28;21980;-68
2022/09/30 02:55:48;;;;;;;2.43;2.13;;;14.10;57.80;;;;;;4936452;28;20563;-70
2022/09/30 02:58:19;;;;;;;2.20;1.97;;;14.10;57.80;;;;;;4950302;28;20814;-69
2022/09/30 03:00:48;;;;;;;3.00;2.07;;;14.10;57.80;;;;;;4948352;28;20474;-68
2022/09/30 03:03:21;;;;;;;2.57;2.00;;;14.10;57.80;;;;;;4984080;28;21053;-68
2022/09/30 03:05:51;;;;;;;1.90;1.80;;;14.10;57.70;;;;;;4960135;28;20557;-68
2022/09/30 03:08:20;;;;;;;2.90;2.10;;;14.10;57.70;;;;;;4944010;29;20510;-69
2022/09/30 03:10:51;;;;;;;2.20;2.00;;;14.10;57.70;;;;;;4942764;28;20450;-68
2022/09/30 03:13:51;;;;;;;2.60;2.07;;;14.10;57.80;;;;;;4943575;28;20842;-69
2022/09/30 03:16:29;;;;;;;2.10;2.00;;;14.10;57.80;;;;;;4948094;28;20498;-68
2022/09/30 03:19:17;;;;;;;3.87;1.60;;;14.10;57.80;;;;;;4963266;28;20456;-69
2022/09/30 03:22:06;;;;;;;2.83;2.10;;;14.10;57.70;;;;;;4975438;28;20465;-67
2022/09/30 03:24:49;;;;;;;2.20;2.00;;;14.10;57.60;;;;;;4937030;29;20455;-67
2022/09/30 03:27:27;;;;;;;1.97;1.70;;;14.10;57.70;;;;;;4971879;28;20486;-69
2022/09/30 03:30:04;;;;;;;2.60;1.90;;;14.00;57.50;;;;;;4943675;28;20496;-69
2022/09/30 03:32:47;;;;;;;2.87;2.17;;;14.00;57.50;;;;;;4976728;28;20487;-68
2022/09/30 03:35:21;;;;;;;3.03;2.23;;;14.10;57.80;;;;;;4940093;28;20430;-68
2022/09/30 03:38:01;;;;;;;2.50;1.90;;;14.00;57.60;;;;;;4956259;28;20505;-69
2022/09/30 03:40:38;;;;;;;2.87;2.10;;;14.00;57.50;;;;;;4957758;28;20467;-67
2022/09/30 03:43:12;;;;;;;2.40;2.20;;;14.00;57.50;;;;;;4952706;28;20475;-70
2022/09/30 03:45:46;;;;;;;2.30;2.10;;;14.00;57.50;;;;;;4953078;28;20496;-69
2022/09/30 03:48:18;;;;;;;3.07;2.80;;;14.00;57.50;;;;;;4947786;29;20480;-68
2022/09/30 03:50:46;;;;;;;1.83;1.60;;;14.00;57.60;;;;;;4950927;28;20472;-68
2022/09/30 03:53:16;;;;;;;2.40;1.87;;;14.00;57.60;;;;;;4947092;29;20470;-69
2022/09/30 03:55:49;;;;;;;3.30;1.77;;;14.00;57.60;;;;;;4967145;28;20520;-68
2022/09/30 03:58:23;;;;;;;1.70;1.60;;;14.00;58.70;;;;;;4947684;28;20511;-68
2022/09/30 04:00:53;;;;;;;2.47;1.70;;;14.00;57.60;;;;;;4945848;28;20509;-68
2022/09/30 04:03:23;;;;;;;2.27;2.07;;;14.00;57.50;;;;;;4943254;28;20542;-69
2022/09/30 04:05:51;;;;;;;1.90;1.80;;;14.00;57.50;;;;;;4943817;28;20571;-68
2022/09/30 04:08:21;;;;;;;2.00;1.80;;;14.00;57.50;;;;;;4937783;29;20485;-68
2022/09/30 04:10:50;;;;;;;2.30;1.90;;;14.00;57.50;;;;;;4951137;28;20473;-67
2022/09/30 04:13:18;;;;;;;1.87;1.70;;;14.00;57.50;;;;;;4944761;28;20551;-68
2022/09/30 04:15:53;;;;;;;1.93;1.83;;;14.00;57.50;;;;;;4960858;28;20548;-69
2022/09/30 04:18:22;;;;;;;2.07;1.63;;;14.00;57.50;;;;;;4975925;28;20474;-68
2022/09/30 04:20:50;;;;;;;2.20;1.93;;;14.00;57.50;;;;;;4943326;28;21003;-70
2022/09/30 04:23:20;;;;;;;2.80;2.50;;;14.00;57.50;;;;;;4962512;28;20494;-69
2022/09/30 04:25:53;;;;;;;2.63;1.93;;;14.00;57.50;;;;;;4952261;28;20596;-69
2022/09/30 04:28:21;;;;;;;1.77;1.67;;;13.90;57.20;;;;;;4943623;29;20521;-68
2022/09/30 04:30:50;;;;;;;2.40;1.80;;;13.90;57.30;;;;;;4947678;28;20437;-67
2022/09/30 04:33:18;;;;;;;1.80;1.70;;;13.90;57.30;;;;;;4948477;28;20467;-67
2022/09/30 04:35:46;;;;;;;2.23;1.90;;;13.90;57.20;;;;;;4951791;28;20898;-67
2022/09/30 04:38:15;;;;;;;2.00;1.80;;;13.90;57.30;;;;;;4928470;28;20565;-68
2022/09/30 04:40:44;;;;;;;1.53;1.43;;;13.90;57.20;;;;;;4949182;28;20454;-69
2022/09/30 04:43:13;;;;;;;2.83;2.10;;;13.90;57.20;;;;;;4951297;28;20521;-68
2022/09/30 04:45:44;;;;;;;3.57;2.40;;;13.90;57.20;;;;;;4951979;28;20985;-67
2022/09/30 04:48:12;;;;;;;2.07;1.90;;;13.90;57.20;;;;;;4947947;28;20608;-67
2022/09/30 04:50:41;;;;;;;1.87;1.73;;;13.90;57.20;;;;;;4965632;28;20935;-67
2022/09/30 04:53:13;;;;;;;3.03;1.57;;;13.90;57.30;;;;;;4945672;28;21059;-68
2022/09/30 04:55:44;;;;;;;2.37;1.67;;;13.90;57.30;;;;;;4939696;28;21072;-69
2022/09/30 04:58:14;;;;;;;3.30;2.00;;;13.90;57.40;;;;;;4943902;28;20472;-69
2022/09/30 05:00:42;;;;;;;1.70;1.50;;;13.90;58.30;;;;;;4954235;28;20954;-69
2022/09/30 05:03:10;;;;;;;1.83;1.57;;;13.90;57.20;;;;;;4939295;28;20550;-69
2022/09/30 05:05:39;;;;;;;1.73;1.57;;;13.90;57.10;;;;;;4947233;28;20487;-68
2022/09/30 05:08:07;;;;;;;1.63;1.53;;;13.90;57.20;;;;;;4938950;28;20557;-67
2022/09/30 05:10:36;;;;;;;1.70;1.53;;;13.80;57.10;;;;;;4941451;29;20430;-67
2022/09/30 05:13:04;;;;;;;3.40;1.90;;;13.90;57.20;;;;;;4927631;28;20523;-69
2022/09/30 05:15:35;;;;;;;2.17;1.80;;;13.80;57.10;;;;;;4945204;29;20438;-69
2022/09/30 05:18:04;;;;;;;1.40;1.30;;;13.90;57.10;;;;;;4939957;28;20483;-68
2022/09/30 05:20:33;;;;;;;2.10;1.80;;;13.90;57.20;;;;;;4969529;28;20516;-70
2022/09/30 05:23:01;;;;;;;2.83;2.00;;;13.80;57.10;;;;;;4946999;28;20574;-67
2022/09/30 05:25:30;;;;;;;3.20;2.10;;;13.90;57.20;;;;;;4944774;28;20491;-66
2022/09/30 05:27:58;;;;;;;1.90;1.80;;;13.80;57.20;;;;;;4942896;28;20490;-67
2022/09/30 05:30:26;;;;;;;2.13;1.93;;;13.80;57.20;;;;;;4951721;28;20488;-68
2022/09/30 05:32:56;;;;;;;1.40;1.30;;;13.80;57.00;;;;;;4942518;28;20479;-69
2022/09/30 05:35:25;;;;;;;2.13;1.63;;;13.80;57.10;;;;;;4944668;28;20442;-69
2022/09/30 05:37:53;;;;;;;2.07;1.50;;;13.80;57.10;;;;;;4939176;28;20604;-69
2022/09/30 05:40:22;;;;;;;2.63;2.43;;;13.80;57.10;;;;;;4939228;28;20453;-69
2022/09/30 05:42:50;;;;;;;2.27;1.80;;;13.80;57.10;;;;;;4942793;28;20463;-69
2022/09/30 05:45:19;;;;;;;2.10;1.80;;;13.80;57.20;;;;;;4948289;28;20528;-67
2022/09/30 05:47:52;;;;;;;2.67;1.53;;;13.80;57.10;;;;;;4947247;28;20914;-68
2022/09/30 05:50:24;;;;;;;1.43;1.33;;;13.80;57.10;;;;;;4963253;28;20445;-68
2022/09/30 05:52:52;;;;;;;2.10;1.90;;;13.80;57.20;;;;;;4929528;28;20469;-68
2022/09/30 05:55:22;;;;;;;1.43;1.33;;;13.80;57.20;;;;;;4954575;28;20932;-69
2022/09/30 05:57:51;;;;;;;2.10;1.70;;;13.80;57.10;;;;;;4967351;28;20536;-66
2022/09/30 06:00:20;;;;;;;2.50;1.83;;;13.80;57.20;;;;;;4972342;28;20441;-65
2022/09/30 06:02:51;;;;;;;1.70;1.60;;;13.70;57.10;;;;;;4952897;28;20477;-72
2022/09/30 06:05:22;;;;;;;1.77;1.67;;;13.70;57.20;;;;;;4973523;28;20808;-74
2022/09/30 06:07:51;;;;;;;2.00;1.50;;;13.80;57.20;;;;;;4946099;28;20489;-72
2022/09/30 06:10:19;;;;;;;2.00;1.80;;;13.70;57.10;;;;;;4941405;28;20430;-72
2022/09/30 06:12:47;;;;;;;2.13;1.93;;;13.80;57.20;;;;;;4953825;28;20834;-71
2022/09/30 06:15:16;;;;;;;3.00;2.00;;;13.70;57.10;;;;;;4954601;28;20476;-73
2022/09/30 06:17:45;;;;;;;2.30;1.47;;;13.70;57.10;;;;;;4962405;28;20529;-73
2022/09/30 06:20:14;;;;;;;2.37;1.40;;;13.70;57.20;;;;;;4946744;28;20944;-73
2022/09/30 06:22:43;;;;;;;1.73;1.63;;;13.70;57.10;;;;;;4969914;28;20769;-73
2022/09/30 06:25:12;;;;;;;1.77;1.43;;;13.70;57.10;;;;;;4955822;28;20450;-73
2022/09/30 06:27:43;;;;;;;1.83;1.60;;;13.70;57.00;;;;;;4953700;28;20568;-73
2022/09/30 06:30:12;;;;;;;2.20;1.67;;;13.70;57.00;;;;;;4943274;29;20452;-73
2022/09/30 06:32:41;;;;;;;2.95;1.80;;;13.70;57.00;;;;;;4902031;28;1159268;-73
2022/09/30 06:35:10;;;;;;;1.57;1.47;;;13.70;57.10;;;;;;4951687;29;20232;-73
2022/09/30 06:37:40;;;;;;;2.10;1.90;;;13.70;57.10;;;;;;4942536;28;20846;-73
2022/09/30 06:40:11;;;;;;;2.10;1.90;;;13.70;57.20;;;;;;4944306;29;20874;-73
2022/09/30 06:42:39;;;;;;;1.60;1.40;;;13.70;57.20;;;;;;4960499;28;20516;-73
2022/09/30 06:45:10;;;;;;;2.23;1.90;;;13.70;57.20;;;;;;4948107;28;20471;-72
2022/09/30 06:47:50;;;;;;;2.40;2.03;;;13.70;57.20;;;;;;4948660;28;20567;-73
2022/09/30 06:50:28;;;;;;;2.00;1.80;;;13.70;57.20;;;;;;4947315;29;20769;-72
2022/09/30 06:52:58;;;;;;;2.17;1.80;;;13.70;57.20;;;;;;4953178;28;21000;-74
2022/09/30 06:55:28;;;;;;;2.03;1.83;;;13.70;57.20;;;;;;4949061;29;20947;-72
2022/09/30 06:57:57;;;;;;;2.20;1.70;;;13.70;57.20;;;;;;4970382;28;21067;-73
2022/09/30 07:00:27;;;;;;;2.13;1.80;;;13.70;58.40;;;;;;4955287;28;20788;-73
2022/09/30 07:02:56;;;;;;;2.67;1.70;;;13.70;57.20;;;;;;4953578;28;20476;-73
2022/09/30 07:05:25;;;;;;;2.43;1.90;;;13.70;57.20;;;;;;4976214;28;21029;-72
2022/09/30 07:07:55;;;;;;;1.70;1.60;;;13.70;57.20;;;;;;4946071;28;20986;-73
2022/09/30 07:10:23;;;;;;;1.73;1.60;;;13.70;57.30;;;;;;4960589;28;20447;-73
2022/09/30 07:12:54;;;;;;;2.23;2.03;;;13.70;57.10;;;;;;4983980;28;21088;-73
2022/09/30 07:15:22;;;;;;;1.50;1.40;;;13.70;57.00;;;;;;4974982;28;20514;-73
2022/09/30 07:17:52;;;;;;;1.57;1.20;;;13.70;57.00;;;;;;4937899;28;20478;-74
2022/09/30 07:20:20;;;;;;;1.60;1.50;;;13.70;57.20;;;;;;4939656;28;20493;-73
2022/09/30 07:22:49;;;;;;;2.90;1.77;;;13.70;57.20;;;;;;4944290;28;21058;-73
2022/09/30 07:25:18;;;;;;;1.87;1.30;;;13.70;57.10;;;;;;4954056;28;20790;-72
2022/09/30 07:27:46;;;;;;;2.50;1.63;;;13.70;57.20;;;;;;4968841;28;20959;-73
2022/09/30 07:30:17;;;;;;;1.63;1.53;;;13.70;57.10;;;;;;4979679;28;20495;-72
2022/09/30 07:32:54;;;;;;;2.83;1.50;;;13.70;57.20;;;;;;4965023;28;20481;-73
2022/09/30 07:35:22;;;;;;;2.47;1.63;;;13.70;57.20;;;;;;4949218;28;20437;-72
2022/09/30 07:37:51;;;;;;;1.70;1.60;;;13.70;57.30;;;;;;4950669;28;20481;-73
2022/09/30 07:40:22;;;;;;;2.90;1.40;;;13.70;57.40;;;;;;4933355;29;20534;-74
2022/09/30 07:42:50;;;;;;;2.20;1.63;;;13.70;57.20;;;;;;4957914;28;20569;-73
2022/09/30 07:45:21;;;;;;;1.70;1.60;;;13.70;57.40;;;;;;4953438;28;20993;-73
2022/09/30 07:47:50;;;;;;;1.83;1.67;;;13.70;57.20;;;;;;4950903;28;20640;-73
2022/09/30 07:50:30;;;;;;;1.73;1.30;;;13.70;57.20;;;;;;4940823;28;20436;-73
2022/09/30 07:58:04;;;;;;;2.80;1.67;;;13.70;57.20;;;;;;4967051;28;20432;-73
2022/09/30 08:01:16;;;;;;;1.90;1.40;;;13.70;57.20;;;;;;4957860;28;20444;-73
2022/09/30 08:32:15;;;;;;;1.77;1.40;;;13.80;57.00;;;;;;5071456;23;21965;-70
2022/09/30 08:34:43;;;;;;;2.23;1.40;;;13.80;57.00;;;;;;4962473;28;20452;-69
2022/09/30 08:37:12;;;;;;;1.47;1.33;;;13.80;57.00;;;;;;4961531;28;20488;-70
2022/09/30 08:39:42;;;;;;;1.70;1.27;;;13.80;57.00;;;;;;4943164;28;20451;-69
2022/09/30 09:10:45;;;;;;;1.70;1.40;;;13.90;57.20;;;;;;4959370;28;20499;-69
2022/09/30 09:33:20;;;;;;;1.43;1.33;;;13.80;57.00;;;;;;4966854;28;20460;-69
2022/09/30 09:35:54;;;;;;;1.47;1.30;;;13.90;57.20;;;;;;4974752;28;20987;-69
2022/09/30 09:38:34;;;;;;;2.23;1.60;;;13.80;57.10;;;;;;4966429;28;20463;-69
2022/09/30 09:41:15;;;;;;;1.30;1.20;;;13.80;57.10;;;;;;4950746;28;20543;-69
2022/09/30 09:43:56;;;;;;;1.23;1.13;;;13.90;57.20;;;;;;4967232;28;20604;-69
2022/09/30 09:46:27;;;;;;;1.50;1.30;;;13.80;57.10;;;;;;4962267;28;20487;-69
2022/09/30 09:49:30;;;;;;;1.30;1.20;;;13.80;57.10;;;;;;4964910;28;20496;-69
2022/09/30 09:52:20;;;;;;;2.50;1.53;;;13.80;57.10;;;;;;4983218;28;20447;-69
2022/09/30 09:54:55;;;;;;;1.50;1.10;;;13.80;57.20;;;;;;4959321;28;20447;-69
2022/09/30 09:57:26;;;;;;;1.53;1.43;;;13.80;57.20;;;;;;4962589;28;21018;-69
2022/09/30 09:59:57;;;;;;;1.23;1.13;;;13.80;57.20;;;;;;4966725;28;20942;-69
2022/09/30 10:02:28;;;;;;;2.20;1.20;;;13.80;57.10;;;;;;4946567;28;20558;-69
2022/09/30 10:05:02;;;;;;;1.30;1.20;;;13.80;57.10;;;;;;4967997;28;20559;-69
2022/09/30 10:07:36;;;;;;;2.03;1.70;;;13.80;57.10;;;;;;4945081;28;20543;-69
2022/09/30 10:10:29;;;;;;;1.40;1.30;;;13.80;57.30;;;;;;4962947;28;20472;-69
2022/09/30 10:13:18;;;;;;;2.03;1.27;;;13.80;57.20;;;;;;4961712;28;20482;-68
2022/09/30 10:15:49;;;;;;;2.53;1.57;;;13.80;57.70;;;;;;4967487;28;20985;-69
2022/09/30 10:18:24;;;;;;;2.57;1.50;;;13.80;58.70;;;;;;4947995;28;20460;-69
2022/09/30 10:20:58;;;;;;;1.80;1.53;;;13.80;58.10;;;;;;4964432;28;20472;-69
2022/09/30 10:23:30;;;;;;;2.00;1.53;;;13.80;58.10;;;;;;4960911;28;20496;-69
2022/09/30 10:26:07;;;;;;;3.40;1.20;;;13.80;58.10;;;;;;4949603;28;20541;-69
2022/09/30 10:28:47;;;;;;;4.13;1.90;;;13.80;58.10;;;;;;4951495;28;20482;-69
2022/09/30 10:31:21;;;;;;;5.50;1.53;;;13.80;58.10;;;;;;4980821;28;20452;-68
2022/09/30 10:34:00;;;;;;;5.60;1.60;;;13.80;58.10;;;;;;4961130;28;20458;-68
2022/09/30 10:36:33;;;;;;;6.93;1.40;;;13.80;58.10;;;;;;4967663;28;20986;-69
2022/09/30 10:39:06;;;;;;;3.60;1.63;;;13.80;58.10;;;;;;4946616;28;20885;-69
2022/09/30 10:41:38;;;;;;;3.10;1.13;;;13.90;58.10;;;;;;4955530;28;20950;-68
2022/09/30 10:44:15;;;;;;;2.90;1.60;;;13.90;58.20;;;;;;4947892;28;20428;-69
2022/09/30 10:46:47;;;;;;;1.80;1.27;;;13.90;58.10;;;;;;4966806;28;20481;-69
2022/09/30 10:49:27;;;;;;;2.50;1.47;;;13.90;58.10;;;;;;4955076;28;20483;-69
2022/09/30 10:51:59;;;;;;;3.10;1.30;;;13.80;58.10;;;;;;4977162;28;20472;-68
2022/09/30 10:54:50;;;;;;;1.30;1.20;;;13.90;58.20;;;;;;4970397;28;20453;-72
2022/09/30 10:57:23;;;;;;;2.20;1.40;;;13.90;58.10;;;;;;4946534;28;20477;-72
2022/09/30 10:59:57;;;;;;;5.63;1.60;;;13.90;58.20;;;;;;4939383;28;20507;-72
2022/09/30 11:02:31;;;;;;;2.90;1.80;;;13.80;58.10;;;;;;4968275;28;20472;-72
2022/09/30 11:05:12;;;;;;;1.33;1.17;;;13.80;58.10;;;;;;4972323;28;20439;-72
2022/09/30 11:07:50;;;;;;;1.87;1.20;;;13.90;58.10;;;;;;4952780;28;20889;-72
2022/09/30 11:10:31;;;;;;;2.40;1.03;;;13.90;58.10;;;;;;4958875;28;20552;-72
2022/09/30 11:13:07;;;;;;;1.47;1.37;;;13.80;58.10;;;;;;4954080;28;20476;-72
2022/09/30 11:15:43;;;;;;;1.97;1.67;;;13.90;58.10;;;;;;4970642;28;20567;-72
2022/09/30 11:18:18;;;;;;;2.40;1.27;;;13.80;58.10;;;;;;4963050;28;20963;-72
2022/09/30 11:20:51;;;;;;;1.67;1.00;;;13.80;58.10;;;;;;4954605;28;20456;-72
2022/09/30 11:23:28;;;;;;;1.87;1.00;;;13.80;58.10;;;;;;4969444;28;20591;-72
2022/09/30 11:26:02;;;;;;;1.37;1.27;;;13.80;58.10;;;;;;4970540;28;20501;-72
2022/09/30 11:28:48;;;;;;;2.80;1.13;;;13.80;58.10;;;;;;4954318;28;20466;-72
2022/09/30 11:31:26;;;;;;;3.00;1.43;;;13.80;58.10;;;;;;4964543;28;20548;-72
2022/09/30 11:34:09;;;;;;;1.67;0.90;;;13.80;58.10;;;;;;4947395;28;20509;-72
2022/09/30 11:36:47;;;;;;;2.50;1.70;;;13.80;58.10;;;;;;4953553;28;20498;-72
2022/09/30 11:39:42;;;;;;;1.97;0.93;;;13.80;58.10;;;;;;4940657;28;20459;-72
2022/09/30 11:42:18;;;;;;;1.33;1.00;;;13.80;58.10;;;;;;4963166;28;20931;-72
2022/09/30 11:44:47;;;;;;;1.63;1.30;;;13.80;58.10;;;;;;4952196;28;20437;-72
2022/09/30 11:47:36;;;;;;;2.13;1.30;;;13.80;58.10;;;;;;4952791;28;20469;-72
2022/09/30 11:50:33;;;;;;;3.10;1.43;;;13.80;58.10;;;;;;4919213;29;20559;-72
2022/09/30 11:53:13;;;;;;;1.30;1.20;;;13.80;58.10;;;;;;4952281;28;20479;-72
2022/09/30 11:55:58;;;;;;;2.30;1.50;;;13.80;58.10;;;;;;4954118;28;20449;-72
2022/09/30 11:58:32;;;;;;;1.13;1.03;;;13.70;58.00;;;;;;4935191;28;20993;-72
2022/09/30 12:01:22;;;;;;;1.40;1.27;;;13.80;58.10;;;;;;4979112;28;20424;-72
2022/09/30 12:03:59;;;;;;;0.90;0.70;;;13.70;58.00;;;;;;4964737;28;20471;-72
2022/09/30 12:06:33;;;;;;;1.70;1.07;;;13.80;58.10;;;;;;4969925;28;20500;-72
2022/09/30 12:09:08;;;;;;;0.83;0.70;;;13.70;58.00;;;;;;4952605;28;21011;-72
2022/09/30 12:11:44;;;;;;;4.50;1.17;;;13.80;58.10;;;;;;4962180;28;20462;-72
2022/09/30 12:14:21;;;;;;;1.83;1.13;;;13.80;58.10;;;;;;4951629;28;20474;-72
2022/09/30 12:16:50;;;;;;;1.63;1.13;;;13.80;58.10;;;;;;4949205;28;20545;-69
2022/09/30 12:19:25;;;;;;;1.07;0.90;;;13.80;58.10;;;;;;4953430;28;20432;-69
2022/09/30 12:22:00;;;;;;;1.40;0.80;;;13.80;58.10;;;;;;4953224;28;20458;-69
2022/09/30 12:24:35;;;;;;;1.40;0.90;;;13.80;58.10;;;;;;4944994;28;21086;-69
2022/09/30 12:27:13;;;;;;;1.47;1.00;;;13.80;58.10;;;;;;4936305;28;20477;-69
2022/09/30 12:33:08;;;;;;;2.00;1.00;;;13.80;58.10;;;;;;4966491;28;20491;-69
2022/09/30 12:36:02;;;;;;;1.10;0.97;;;13.80;58.40;;;;;;4965519;28;20480;-69
2022/09/30 12:38:54;;;;;;;1.30;0.70;;;13.80;58.10;;;;;;4935579;28;20516;-69
2022/09/30 12:41:39;;;;;;;1.13;1.00;;;13.80;58.10;;;;;;4953317;28;20531;-69
2022/09/30 12:44:45;;;;;;;1.60;0.97;;;13.80;58.10;;;;;;4953509;28;20524;-69
2022/09/30 12:47:32;;;;;;;1.43;1.00;;;13.80;58.10;;;;;;4945549;28;20555;-69
2022/09/30 12:50:07;;;;;;;0.90;0.80;;;13.80;58.10;;;;;;4965970;28;20493;-69
2022/09/30 12:52:38;;;;;;;1.77;1.00;;;13.80;58.10;;;;;;4948584;28;20544;-69
2022/09/30 12:55:18;;;;;;;0.90;0.90;;;13.80;58.10;;;;;;4968976;28;20471;-69
2022/09/30 12:57:49;;;;;;;1.50;1.30;;;13.80;58.10;;;;;;4944132;28;20474;-69
2022/09/30 13:00:20;;;;;;;2.03;1.20;;;13.80;58.10;;;;;;4953040;28;20425;-69
2022/09/30 13:02:56;;;;;;;1.00;0.90;;;13.80;59.20;;;;;;4946942;28;20567;-69
2022/09/30 13:06:05;;;;;;;1.10;1.00;;;13.80;58.10;;;;;;4936889;28;20857;-69
2022/09/30 13:09:17;;;;;;;1.83;1.00;;;13.80;58.10;;;;;;4868241;29;20577;-69
2022/09/30 13:11:47;;;;;;;1.17;1.07;;;13.80;58.10;;;;;;4904944;29;20579;-69
2022/09/30 13:14:33;;;;;;;1.13;0.90;;;13.90;58.10;;;;;;4927995;29;20519;-69
2022/09/30 13:17:34;;;;;;;1.03;0.90;;;13.80;58.10;;;;;;4948152;28;21047;-69
2022/09/30 13:20:43;;;;;;;0.83;0.73;;;13.80;58.10;;;;;;4944880;28;20444;-69
2022/09/30 13:23:38;;;;;;;1.20;1.00;;;13.80;58.10;;;;;;4960678;28;21010;-69
2022/09/30 13:26:48;;;;;;;1.10;0.90;;;13.80;58.10;;;;;;4950914;28;20445;-72
2022/09/30 13:29:38;;;;;;;1.07;0.93;;;13.90;58.10;;;;;;4944475;28;20544;-69
2022/09/30 13:32:08;;;;;;;1.10;0.77;;;13.90;58.10;;;;;;4933573;28;20597;-69
2022/09/30 13:35:06;;;;;;;1.00;0.80;;;13.90;58.10;;;;;;4952346;28;20901;-69
2022/09/30 13:37:42;;;;;;;1.00;0.87;;;13.90;58.10;;;;;;4963105;28;20543;-69
2022/09/30 13:40:25;;;;;;;1.60;0.70;;;13.90;58.20;;;;;;4961082;28;20492;-72
2022/09/30 13:43:19;;;;;;;1.07;0.93;;;13.90;58.10;;;;;;4960382;28;20472;-72
2022/09/30 13:45:52;;;;;;;1.83;1.00;;;13.90;58.20;;;;;;4950029;28;20745;-70
2022/09/30 13:48:37;;;;;;;1.27;0.80;;;13.90;58.20;;;;;;4968319;28;20496;-69
2022/09/30 13:51:13;;;;;;;0.93;0.80;;;13.90;58.10;;;;;;4960210;28;20553;-73
2022/09/30 13:53:47;;;;;;;1.07;0.90;;;13.90;58.20;;;;;;4944071;28;20507;-68
2022/09/30 13:56:20;;;;;;;0.80;0.80;;;13.90;58.20;;;;;;4951330;28;20456;-67
2022/09/30 13:59:27;;;;;;;0.77;0.73;;;13.90;58.20;;;;;;4960450;28;20444;-69
2022/09/30 14:02:38;;;;;;;0.90;0.67;;;13.90;58.20;;;;;;4942537;28;20997;-69
2022/09/30 14:05:35;;;;;;;1.20;1.10;;;13.90;58.10;;;;;;4857205;29;20840;-69
2022/09/30 14:08:25;;;;;;;1.00;0.73;;;13.90;58.10;;;;;;4884182;29;20489;-69
2022/09/30 14:11:10;;;;;;;1.00;0.90;;;13.90;58.10;;;;;;4952235;28;20463;-69
2022/09/30 14:13:51;;;;;;;1.40;0.80;;;14.00;58.20;;;;;;4963204;28;20496;-69
2022/09/30 14:16:46;;;;;;;0.90;0.80;;;14.00;58.20;;;;;;4943790;29;20477;-69
2022/09/30 14:19:53;;;;;;;1.23;0.80;;;14.00;58.20;;;;;;4969699;28;20451;-69
2022/09/30 14:22:25;;;;;;;0.80;0.80;;;14.00;58.30;;;;;;4972612;28;20469;-69
2022/09/30 14:24:54;;;;;;;1.00;0.90;;;14.00;58.20;;;;;;4947811;28;20509;-69
2022/09/30 14:27:41;;;;;;;0.90;0.90;;;14.00;58.20;;;;;;4954681;28;20547;-69
2022/09/30 14:30:13;;;;;;;1.20;0.90;;;14.00;58.20;;;;;;4965670;28;21025;-69
2022/09/30 14:32:46;;;;;;;1.13;0.90;;;14.00;58.30;;;;;;4981761;23;22633;-72
2022/09/30 14:35:18;;;;;;;1.10;1.00;;;14.00;58.30;;;;;;4944029;28;20525;-73
2022/09/30 14:37:49;;;;;;;1.20;0.80;;;14.00;58.30;;;;;;4935856;28;20494;-73
2022/09/30 14:40:20;;;;;;;1.10;1.00;;;14.00;58.20;;;;;;4924387;29;20962;-73
2022/09/30 14:42:50;;;;;;;0.87;0.87;;;14.00;58.20;;;;;;4938072;29;20473;-73
2022/09/30 14:45:25;;;;;;;1.23;1.10;;;14.00;58.20;;;;;;4935996;29;20506;-73
2022/09/30 14:47:57;;;;;;;0.80;0.80;;;14.00;58.20;;;;;;4954321;28;20496;-73
2022/09/30 14:50:30;;;;;;;1.60;1.00;;;14.00;58.20;;;;;;4943281;29;20881;-73
2022/09/30 14:52:59;;;;;;;0.73;0.67;;;14.00;58.20;;;;;;4914700;29;20481;-74
2022/09/30 14:55:29;;;;;;;0.70;0.70;;;14.00;58.30;;;;;;4939518;28;20518;-74
2022/09/30 14:58:22;;;;;;;1.10;1.00;;;14.00;58.20;;;;;;4940128;29;20505;-73